Time;durP1;ratioP1;P1;durP2;ratioP2;P2;SDS_P1;SDS_P2;PMS_P1;PMS_P2;Temp;Humidity;BMP_temperature;BMP_pressure;BME280_temperature;BME280_humidity;BME280_pressure;Samples;Min_cycle;Max_cycle;Signal;HPM_P1;HPM_P2
2023/08/08 00:01:42;;;;;;;10.67;10.17;;;;;;;16.38;100.00;92716.41;5061668;28;20225;-74
2023/08/08 00:04:11;;;;;;;9.77;9.37;;;;;;;16.33;100.00;92713.91;5056746;28;20208;-74
2023/08/08 00:06:37;;;;;;;9.67;9.27;;;;;;;16.15;100.00;92707.09;5056171;28;20190;-73
2023/08/08 00:09:03;;;;;;;10.10;9.60;;;;;;;16.30;100.00;92724.28;5060309;28;20182;-74
2023/08/08 00:11:30;;;;;;;9.17;8.77;;;;;;;16.08;100.00;92710.19;5056065;28;20355;-74
2023/08/08 00:13:56;;;;;;;8.77;8.37;;;;;;;16.15;100.00;92717.63;5051118;28;20189;-74
2023/08/08 00:16:22;;;;;;;9.67;9.20;;;;;;;16.01;100.00;92722.28;5063425;28;20177;-73
2023/08/08 00:18:50;;;;;;;9.37;8.97;;;;;;;15.48;100.00;92711.16;5064439;28;20263;-74
2023/08/08 00:21:16;;;;;;;9.30;8.90;;;;;;;15.41;100.00;92722.13;5056824;28;20242;-74
2023/08/08 00:23:41;;;;;;;9.93;9.43;;;;;;;15.44;100.00;92718.13;5051114;28;20218;-74
2023/08/08 00:26:06;;;;;;;9.50;9.00;;;;;;;15.41;100.00;92724.00;5068220;28;20233;-73
2023/08/08 00:28:32;;;;;;;10.70;9.93;;;;;;;15.35;100.00;92727.81;5050743;28;20210;-74
2023/08/08 00:30:57;;;;;;;10.20;9.73;;;;;;;15.40;100.00;92727.69;5058930;28;20237;-73
2023/08/08 00:33:23;;;;;;;8.60;8.30;;;;;;;15.42;100.00;92730.81;5059463;28;20276;-74
2023/08/08 00:35:48;;;;;;;10.30;9.80;;;;;;;15.29;99.95;92734.28;5059750;28;20201;-74
2023/08/08 00:38:14;;;;;;;9.47;9.07;;;;;;;15.28;100.00;92740.63;5067880;28;20230;-74
2023/08/08 00:40:39;;;;;;;10.70;10.20;;;;;;;14.99;100.00;92727.19;5072276;28;20191;-73
2023/08/08 00:43:05;;;;;;;9.50;9.10;;;;;;;15.13;100.00;92733.16;5060709;28;20225;-74
2023/08/08 00:45:30;;;;;;;10.77;10.17;;;;;;;14.63;100.00;92684.47;5065702;28;20185;-73
2023/08/08 00:47:56;;;;;;;10.30;9.80;;;;;;;15.07;100.00;92729.06;5063669;28;20280;-74
2023/08/08 00:50:22;;;;;;;10.43;9.93;;;;;;;14.72;98.10;92693.19;5061234;28;20206;-73
2023/08/08 00:52:48;;;;;;;9.83;9.43;;;;;;;15.00;98.34;92728.75;5058036;28;20221;-74
2023/08/08 00:55:14;;;;;;;10.07;9.60;;;;;;;14.96;98.42;92727.81;5077444;28;20182;-74
2023/08/08 00:57:40;;;;;;;9.80;9.33;;;;;;;15.18;97.54;92722.47;5071109;28;20273;-74
2023/08/08 01:00:09;;;;;;;10.33;9.83;;;;;;;15.09;98.48;92726.91;5059414;28;20186;-74
2023/08/08 01:02:34;;;;;;;10.30;9.90;;;;;;;15.08;97.09;92730.63;5055823;28;20233;-74
2023/08/08 01:05:00;;;;;;;10.30;9.90;;;;;;;14.97;96.40;92721.47;5070620;28;20197;-73
2023/08/08 01:07:38;;;;;;;10.07;9.67;;;;;;;14.97;95.04;92729.34;5073435;28;20222;-73
2023/08/08 01:10:09;;;;;;;9.77;9.27;;;;;;;14.95;96.67;92699.94;5067635;28;20184;-73
2023/08/08 01:12:40;;;;;;;8.63;8.33;;;;;;;15.00;96.26;92740.03;5053272;28;20221;-73
2023/08/08 01:15:07;;;;;;;10.20;9.70;;;;;;;14.76;97.39;92734.31;5064055;28;20217;-74
2023/08/08 01:17:34;;;;;;;9.30;8.80;;;;;;;14.73;97.29;92727.03;5071279;28;20229;-73
2023/08/08 01:20:00;;;;;;;8.57;8.27;;;;;;;14.89;96.73;92737.97;5067440;28;20260;-73
2023/08/08 01:22:32;;;;;;;9.23;8.87;;;;;;;14.79;97.71;92732.94;5067955;28;20232;-74
2023/08/08 01:24:59;;;;;;;9.10;8.70;;;;;;;14.81;99.08;92730.78;5068172;28;20201;-73
2023/08/08 01:27:24;;;;;;;8.97;8.57;;;;;;;14.95;96.65;92737.53;5071986;28;20281;-73
2023/08/08 01:29:50;;;;;;;8.50;8.20;;;;;;;14.83;97.23;92733.91;5066725;28;20239;-74
2023/08/08 01:32:16;;;;;;;10.20;9.70;;;;;;;14.60;97.39;92740.25;5068888;28;20314;-74
2023/08/08 01:34:42;;;;;;;9.87;9.47;;;;;;;14.79;96.60;92748.72;5067912;28;20182;-70
2023/08/08 01:37:16;;;;;;;9.37;8.97;;;;;;;14.76;95.97;92744.84;5059321;28;20226;-69
2023/08/08 01:39:43;;;;;;;10.07;9.67;;;;;;;14.69;95.32;92749.75;5067952;28;20427;-69
2023/08/08 01:42:11;;;;;;;9.30;8.90;;;;;;;14.47;95.37;92747.88;5063690;28;20237;-70
2023/08/08 01:44:39;;;;;;;9.87;9.47;;;;;;;14.60;95.77;92777.03;5070795;28;20190;-70
2023/08/08 01:47:05;;;;;;;10.47;9.97;;;;;;;14.57;95.23;92782.91;5070647;28;20252;-74
2023/08/08 01:49:30;;;;;;;8.50;8.20;;;;;;;14.61;95.02;92789.88;5061469;28;20179;-73
2023/08/08 01:51:56;;;;;;;10.07;9.67;;;;;;;14.62;95.35;92796.69;5053514;28;20301;-74
2023/08/08 01:54:21;;;;;;;8.57;8.23;;;;;;;14.70;94.61;92809.13;5066887;28;20182;-74
2023/08/08 01:56:46;;;;;;;10.33;9.83;;;;;;;14.65;94.49;92805.81;5068939;28;20315;-74
2023/08/08 01:59:12;;;;;;;9.97;9.50;;;;;;;14.71;93.96;92817.78;5063929;28;20240;-73
2023/08/08 02:01:37;;;;;;;10.77;10.17;;;;;;;14.73;93.66;92819.03;5059292;28;20360;-73
2023/08/08 02:04:03;;;;;;;9.20;8.80;;;;;;;14.59;94.34;92818.31;5069711;28;20212;-73
2023/08/08 02:06:29;;;;;;;9.47;9.07;;;;;;;14.65;95.68;92821.56;5068692;28;20178;-73
2023/08/08 02:08:55;;;;;;;9.57;9.17;;;;;;;14.71;93.72;92826.44;5070949;28;20182;-74
2023/08/08 02:11:21;;;;;;;10.03;9.57;;;;;;;14.68;93.61;92815.75;5061915;28;20197;-73
2023/08/08 02:13:47;;;;;;;9.70;9.30;;;;;;;14.74;94.91;92806.69;5069785;28;20181;-74
2023/08/08 02:16:12;;;;;;;10.07;9.67;;;;;;;14.57;94.71;92830.19;5068004;28;20193;-73
2023/08/08 02:18:40;;;;;;;10.07;9.53;;;;;;;14.74;94.12;92835.59;5070251;28;20276;-74
2023/08/08 02:21:07;;;;;;;10.20;9.73;;;;;;;14.80;93.81;92829.88;5066401;28;20186;-74
2023/08/08 02:23:32;;;;;;;10.33;9.83;;;;;;;14.69;94.78;92843.56;5055410;28;20249;-73
2023/08/08 02:25:58;;;;;;;10.53;10.03;;;;;;;14.46;95.43;92835.66;5071319;28;20241;-74
2023/08/08 02:28:23;;;;;;;9.47;9.03;;;;;;;14.48;95.99;92841.41;5052212;28;20289;-74
2023/08/08 02:30:48;;;;;;;10.27;9.70;;;;;;;14.60;96.24;92851.38;5049480;28;20233;-73
2023/08/08 02:33:14;;;;;;;9.73;9.17;;;;;;;14.51;96.25;92850.53;5065807;28;20213;-74
2023/08/08 02:35:39;;;;;;;10.37;9.87;;;;;;;14.64;95.65;92844.47;5069546;28;20235;-73
2023/08/08 02:38:05;;;;;;;10.20;9.60;;;;;;;14.68;94.61;92848.03;5061698;28;20265;-75
2023/08/08 02:40:30;;;;;;;9.90;9.50;;;;;;;14.74;94.87;92852.09;5069148;28;20201;-75
2023/08/08 02:42:55;;;;;;;10.40;9.93;;;;;;;14.67;94.11;92848.34;5068349;28;20210;-72
2023/08/08 02:45:21;;;;;;;10.27;9.77;;;;;;;14.68;94.18;92857.81;5069906;28;20181;-74
2023/08/08 02:47:46;;;;;;;10.17;9.70;;;;;;;14.59;93.40;92870.06;5070002;28;20217;-74
2023/08/08 02:50:12;;;;;;;9.17;8.53;;;;;;;14.60;92.69;92850.63;5065478;28;20366;-73
2023/08/08 02:52:37;;;;;;;10.33;9.83;;;;;;;14.52;92.67;92817.16;5067532;28;20232;-73
2023/08/08 02:55:03;;;;;;;9.53;9.13;;;;;;;14.74;92.45;92856.59;5070163;28;20190;-73
2023/08/08 02:57:28;;;;;;;10.00;9.60;;;;;;;14.72;93.36;92877.16;5069214;28;20217;-74
2023/08/08 02:59:54;;;;;;;10.00;9.53;;;;;;;14.49;91.95;92861.34;5069978;28;20719;-74
2023/08/08 03:02:19;;;;;;;9.83;9.43;;;;;;;14.70;91.58;92868.78;5069703;28;20233;-74
2023/08/08 03:04:44;;;;;;;10.60;10.10;;;;;;;14.71;91.00;92867.72;5069658;28;20233;-74
2023/08/08 03:07:10;;;;;;;9.60;9.20;;;;;;;14.66;91.81;92862.56;5067186;28;20297;-74
2023/08/08 03:09:35;;;;;;;10.20;9.70;;;;;;;14.68;91.69;92857.81;5060254;28;20220;-73
2023/08/08 03:12:01;;;;;;;10.03;9.30;;;;;;;14.73;90.55;92862.91;5069091;28;20251;-73
2023/08/08 03:14:26;;;;;;;10.13;9.50;;;;;;;14.63;90.82;92853.41;5065849;28;20218;-73
2023/08/08 03:16:51;;;;;;;9.90;9.50;;;;;;;14.66;91.71;92855.47;5061035;28;20222;-75
2023/08/08 03:19:17;;;;;;;10.20;9.70;;;;;;;14.92;90.73;92866.16;5051355;28;20185;-74
2023/08/08 03:21:42;;;;;;;10.60;10.10;;;;;;;14.84;91.29;92877.41;5049275;28;20232;-74
2023/08/08 03:24:07;;;;;;;11.00;10.40;;;;;;;14.64;91.24;92867.34;5065215;28;20205;-74
2023/08/08 03:26:33;;;;;;;9.73;9.23;;;;;;;14.56;93.02;92863.56;5069219;28;20192;-73
2023/08/08 03:28:58;;;;;;;10.33;9.73;;;;;;;14.61;93.10;92878.44;5068749;28;20196;-75
2023/08/08 03:31:25;;;;;;;10.23;9.77;;;;;;;14.43;93.89;92873.03;5069062;28;20243;-74
2023/08/08 03:33:51;;;;;;;10.63;10.03;;;;;;;14.55;94.43;92875.16;5069811;28;20197;-74
2023/08/08 03:36:16;;;;;;;10.43;9.73;;;;;;;14.51;94.01;92881.31;5062083;28;20707;-74
2023/08/08 03:38:45;;;;;;;10.47;9.87;;;;;;;14.48;94.48;92880.81;5073028;28;20216;-74
2023/08/08 03:41:11;;;;;;;11.17;10.50;;;;;;;14.38;95.13;92891.50;5069059;28;20241;-73
2023/08/08 03:43:38;;;;;;;11.50;10.80;;;;;;;14.39;95.52;92885.22;5068927;28;20291;-74
2023/08/08 03:46:03;;;;;;;10.60;10.10;;;;;;;14.24;96.39;92876.88;5076533;28;20189;-75
2023/08/08 03:48:28;;;;;;;12.27;11.53;;;;;;;14.30;95.13;92881.69;5072454;28;20247;-75
2023/08/08 03:50:54;;;;;;;11.70;11.00;;;;;;;14.44;94.80;92882.44;5062734;28;20213;-74
2023/08/08 03:53:19;;;;;;;11.83;11.23;;;;;;;14.59;92.66;92870.84;5063411;28;20232;-75
2023/08/08 03:55:45;;;;;;;11.63;11.03;;;;;;;14.71;92.20;92876.34;5069251;28;20208;-76
2023/08/08 03:58:10;;;;;;;10.57;10.00;;;;;;;14.68;92.83;92874.31;5068292;28;20222;-74
2023/08/08 04:00:36;;;;;;;10.43;9.93;;;;;;;14.99;91.47;92877.06;5057314;28;20196;-75
2023/08/08 04:03:01;;;;;;;9.97;9.37;;;;;;;15.04;90.14;92887.44;5069154;28;20236;-75
2023/08/08 04:05:26;;;;;;;10.40;9.90;;;;;;;15.11;91.04;92874.66;5062307;28;20272;-74
2023/08/08 04:07:52;;;;;;;10.50;9.90;;;;;;;14.90;90.03;92886.72;5072451;28;21012;-74
2023/08/08 04:10:17;;;;;;;11.40;10.70;;;;;;;14.99;90.66;92893.59;5074832;28;20216;-74
2023/08/08 04:12:42;;;;;;;11.20;10.67;;;;;;;14.89;91.71;92903.56;5072286;28;20221;-75
2023/08/08 04:15:09;;;;;;;10.20;9.70;;;;;;;15.04;91.21;92903.22;5071948;28;20190;-74
2023/08/08 04:17:34;;;;;;;10.03;9.63;;;;;;;14.99;91.39;92919.13;5059811;28;20217;-74
2023/08/08 04:20:00;;;;;;;9.73;9.23;;;;;;;15.03;91.49;92918.25;5052793;28;20204;-74
2023/08/08 04:22:25;;;;;;;10.60;10.10;;;;;;;15.09;91.35;92896.00;5059606;28;20252;-74
2023/08/08 04:24:50;;;;;;;11.37;10.67;;;;;;;15.26;91.57;92921.66;5073301;28;20175;-74
2023/08/08 04:27:16;;;;;;;10.17;9.73;;;;;;;15.24;92.00;92934.31;5068584;28;20232;-74
2023/08/08 04:29:41;;;;;;;10.67;10.07;;;;;;;15.16;92.75;92930.53;5057766;28;20214;-74
2023/08/08 04:32:07;;;;;;;9.90;9.50;;;;;;;14.98;91.69;92930.69;5070166;28;20278;-73
2023/08/08 04:34:32;;;;;;;10.20;9.70;;;;;;;15.00;91.96;92928.56;5068914;28;20189;-74
2023/08/08 04:36:58;;;;;;;10.90;10.17;;;;;;;14.94;92.11;92932.38;5069334;28;20244;-73
2023/08/08 04:39:23;;;;;;;10.57;10.07;;;;;;;15.10;91.72;92942.25;5070895;28;20181;-73
2023/08/08 04:41:48;;;;;;;12.07;11.47;;;;;;;15.21;91.39;92934.91;5072055;28;20225;-71
2023/08/08 04:44:14;;;;;;;10.50;10.00;;;;;;;15.19;91.23;92937.84;5063769;28;20189;-70
2023/08/08 04:46:39;;;;;;;11.30;10.80;;;;;;;15.37;90.77;92931.63;5064688;28;20233;-71
2023/08/08 04:49:05;;;;;;;11.53;10.93;;;;;;;15.56;88.82;92927.00;5072116;28;20233;-72
2023/08/08 04:51:31;;;;;;;11.13;10.53;;;;;;;15.87;87.50;92933.06;5077216;28;20205;-69
2023/08/08 04:53:56;;;;;;;10.23;9.73;;;;;;;16.08;86.19;92917.47;5069184;28;20218;-69
2023/08/08 04:56:21;;;;;;;10.93;10.43;;;;;;;15.98;87.26;92917.78;5068902;28;20169;-71
2023/08/08 04:58:47;;;;;;;11.63;11.10;;;;;;;16.02;87.46;92930.03;5069454;28;20189;-72
2023/08/08 05:01:14;;;;;;;10.13;9.73;;;;;;;15.95;87.02;92929.66;5070049;28;20972;-72
2023/08/08 05:03:40;;;;;;;10.43;9.90;;;;;;;15.63;88.56;92944.97;5070011;28;20214;-73
2023/08/08 05:06:05;;;;;;;11.40;10.80;;;;;;;15.59;87.84;92938.78;5067685;28;20192;-72
2023/08/08 05:08:31;;;;;;;11.17;10.57;;;;;;;15.64;87.98;92971.00;5058188;28;20222;-72
2023/08/08 05:10:56;;;;;;;10.83;10.33;;;;;;;15.65;87.88;92975.22;5070330;28;20227;-72
2023/08/08 05:13:22;;;;;;;10.20;9.70;;;;;;;15.75;86.96;92971.56;5064051;28;20247;-72
2023/08/08 05:15:47;;;;;;;11.23;10.73;;;;;;;15.68;86.32;92986.97;5070162;28;20169;-76
2023/08/08 05:18:12;;;;;;;10.87;10.37;;;;;;;16.08;85.34;92995.75;5070352;28;20226;-71
2023/08/08 05:20:38;;;;;;;11.47;10.80;;;;;;;16.11;84.14;92995.91;5064653;28;20239;-70
2023/08/08 05:23:04;;;;;;;10.47;9.97;;;;;;;16.11;83.25;93000.41;5058184;28;20244;-70
2023/08/08 05:25:29;;;;;;;10.70;10.20;;;;;;;15.84;84.59;93001.34;5058584;28;20186;-70
2023/08/08 05:27:54;;;;;;;10.60;10.10;;;;;;;15.85;85.23;93002.88;5057182;28;20209;-70
2023/08/08 05:30:49;;;;;;;9.93;9.53;;;;;;;15.72;84.49;93006.38;5068600;28;20233;-68
2023/08/08 05:33:15;;;;;;;9.40;8.90;;;;;;;15.94;82.61;93006.34;5073957;28;20248;-70
2023/08/08 05:35:40;;;;;;;10.50;10.00;;;;;;;15.79;83.07;93007.50;5066438;28;20190;-68
2023/08/08 05:38:06;;;;;;;10.30;9.60;;;;;;;16.03;83.84;93015.09;5069467;28;20236;-69
2023/08/08 05:40:34;;;;;;;10.37;9.80;;;;;;;16.15;83.21;93009.25;5068490;28;20189;-70
2023/08/08 05:42:59;;;;;;;8.87;8.53;;;;;;;15.94;81.38;93028.19;5058439;28;20277;-72
2023/08/08 05:45:25;;;;;;;10.10;9.60;;;;;;;15.70;83.74;93021.69;5063789;28;20196;-71
2023/08/08 05:47:50;;;;;;;9.87;9.27;;;;;;;16.14;82.30;93026.16;5062189;28;20221;-71
2023/08/08 05:50:15;;;;;;;9.90;9.37;;;;;;;16.16;81.92;93027.38;5060586;28;20200;-71
2023/08/08 05:52:41;;;;;;;10.30;9.80;;;;;;;17.12;79.52;93033.53;5056276;28;20224;-69
2023/08/08 05:55:07;;;;;;;13.20;12.40;;;;;;;17.40;77.36;93046.13;5064056;28;20194;-68
2023/08/08 05:57:32;;;;;;;9.27;8.87;;;;;;;18.48;73.09;93052.00;5078628;28;20233;-72
2023/08/08 05:59:57;;;;;;;10.07;9.47;;;;;;;17.88;73.61;93047.88;5063874;28;20206;-70
2023/08/08 06:02:23;;;;;;;10.40;9.90;;;;;;;16.93;77.26;93062.03;5054519;28;20230;-69
2023/08/08 06:04:48;;;;;;;10.37;9.87;;;;;;;17.63;74.17;93076.63;5066089;28;20209;-69
2023/08/08 06:07:13;;;;;;;11.10;10.57;;;;;;;19.86;67.33;93084.66;5067149;28;20235;-71
2023/08/08 06:09:39;;;;;;;10.50;9.93;;;;;;;22.16;57.38;93068.66;5068050;28;20183;-71
2023/08/08 06:12:05;;;;;;;9.18;8.73;;;;;;;22.28;57.58;93081.91;5063438;28;20237;-70
2023/08/08 06:14:30;;;;;;;8.80;8.40;;;;;;;21.60;58.61;93067.78;5069333;28;20253;-72
2023/08/08 06:16:55;;;;;;;9.13;8.70;;;;;;;19.66;63.89;93069.53;5062950;28;20236;-71
2023/08/08 06:19:21;;;;;;;9.32;8.90;;;;;;;18.57;69.00;93065.97;5047208;28;20192;-69
2023/08/08 06:21:46;;;;;;;9.67;9.17;;;;;;;17.74;71.40;93057.84;5040943;28;20225;-68
2023/08/08 06:24:12;;;;;;;10.67;9.70;;;;;;;19.57;65.04;93029.84;5046928;28;20211;-69
2023/08/08 06:26:38;;;;;;;9.18;8.77;;;;;;;21.75;56.51;93056.50;5045463;28;20305;-70
2023/08/08 06:29:03;;;;;;;9.23;8.77;;;;;;;20.39;59.03;93069.53;5044699;28;20216;-70
2023/08/08 06:31:30;;;;;;;9.23;8.70;;;;;;;19.23;61.65;93058.38;5051879;28;20214;-70
2023/08/08 06:33:55;;;;;;;9.27;8.77;;;;;;;18.81;62.64;93049.56;5052971;28;20193;-70
2023/08/08 06:36:20;;;;;;;9.30;8.90;;;;;;;18.18;67.01;93039.00;5049434;28;20219;-70
2023/08/08 06:38:46;;;;;;;9.27;8.77;;;;;;;18.44;65.40;93045.03;5068687;28;20199;-70
2023/08/08 06:41:11;;;;;;;10.40;9.90;;;;;;;17.69;65.43;93044.78;5066127;28;20219;-70
2023/08/08 06:43:36;;;;;;;9.60;9.10;;;;;;;17.83;64.08;93040.91;5039912;28;20230;-73
2023/08/08 06:46:02;;;;;;;9.60;8.63;;;;;;;17.84;62.11;93046.97;5034381;28;20185;-69
2023/08/08 06:48:27;;;;;;;9.30;8.50;;;;;;;18.73;60.84;93047.72;5066063;28;20214;-70
2023/08/08 06:50:53;;;;;;;9.77;9.17;;;;;;;17.88;62.48;93056.59;5069056;28;20301;-70
2023/08/08 06:53:18;;;;;;;8.93;8.53;;;;;;;17.39;66.46;93055.16;5070300;28;20253;-71
2023/08/08 06:55:44;;;;;;;9.77;9.30;;;;;;;17.61;66.81;93048.97;5065462;28;20217;-71
2023/08/08 06:58:09;;;;;;;7.97;7.60;;;;;;;17.86;67.25;93055.34;5068736;28;20222;-71
2023/08/08 07:00:34;;;;;;;9.63;9.13;;;;;;;17.59;68.17;93062.50;5051378;28;20186;-68
2023/08/08 07:03:00;;;;;;;8.33;8.03;;;;;;;17.33;68.12;93059.03;5072609;28;20223;-69
2023/08/08 07:05:25;;;;;;;9.03;8.53;;;;;;;16.85;68.49;93068.03;5048036;28;20241;-69
2023/08/08 07:07:51;;;;;;;9.17;8.77;;;;;;;17.11;69.12;93067.03;5061853;28;20222;-71
2023/08/08 07:10:17;;;;;;;9.37;8.80;;;;;;;17.38;69.14;93064.16;5066247;28;20194;-71
2023/08/08 07:12:42;;;;;;;10.13;9.63;;;;;;;17.22;68.52;93055.13;5067226;28;20903;-71
2023/08/08 07:15:08;;;;;;;9.47;9.07;;;;;;;17.89;67.76;93054.72;5066617;28;20213;-72
2023/08/08 07:17:33;;;;;;;9.10;8.70;;;;;;;17.69;68.19;93055.34;5067963;28;20230;-71
2023/08/08 07:19:59;;;;;;;9.30;8.77;;;;;;;17.14;66.10;93058.50;5061534;28;20219;-70
2023/08/08 07:22:25;;;;;;;9.40;9.00;;;;;;;17.20;66.50;93052.00;5068201;28;20221;-69
2023/08/08 07:24:51;;;;;;;8.90;8.50;;;;;;;17.03;67.33;93038.78;5069128;28;20201;-70
2023/08/08 07:27:16;;;;;;;10.27;9.77;;;;;;;17.07;68.29;93055.56;5068068;28;20229;-69
2023/08/08 07:29:41;;;;;;;9.57;8.97;;;;;;;17.01;68.66;93051.47;5057517;28;20247;-70
2023/08/08 07:32:07;;;;;;;9.23;8.87;;;;;;;17.09;66.09;93058.66;5067719;28;20290;-70
2023/08/08 07:34:33;;;;;;;9.57;9.17;;;;;;;17.00;67.25;93052.56;5063984;28;20310;-70
2023/08/08 07:36:59;;;;;;;9.27;8.87;;;;;;;17.17;67.29;93055.25;5064546;28;20225;-70
2023/08/08 07:39:24;;;;;;;8.43;8.07;;;;;;;17.76;66.02;93055.66;5040232;28;20195;-70
2023/08/08 07:41:49;;;;;;;8.27;7.87;;;;;;;17.51;67.34;93062.47;5041923;28;20222;-70
2023/08/08 07:44:15;;;;;;;8.50;8.07;;;;;;;17.76;64.08;93050.38;5067897;28;20249;-70
2023/08/08 07:46:41;;;;;;;9.57;9.17;;;;;;;17.89;66.11;93058.13;5064247;28;20221;-70
2023/08/08 07:49:06;;;;;;;8.83;8.33;;;;;;;18.09;64.61;93062.78;5045965;28;20190;-70
2023/08/08 07:51:32;;;;;;;8.77;8.30;;;;;;;17.61;65.38;93059.53;5049920;28;20234;-69
2023/08/08 07:53:59;;;;;;;9.30;8.90;;;;;;;17.81;65.74;93042.28;5066762;28;20194;-71
2023/08/08 07:56:24;;;;;;;8.43;8.03;;;;;;;17.75;65.10;93054.09;5065851;28;20181;-71
2023/08/08 07:58:49;;;;;;;8.50;8.20;;;;;;;17.48;66.38;93052.53;5039591;28;20191;-72
2023/08/08 08:01:15;;;;;;;8.50;8.20;;;;;;;17.66;67.65;93056.75;5039435;28;20198;-72
2023/08/08 08:03:40;;;;;;;10.40;9.57;;;;;;;17.97;66.98;93059.22;5066244;28;20376;-71
2023/08/08 08:06:06;;;;;;;8.20;7.83;;;;;;;17.84;64.76;93060.19;5068073;28;20466;-73
2023/08/08 08:08:32;;;;;;;9.10;8.63;;;;;;;17.76;65.14;93060.94;5059382;28;20229;-74
2023/08/08 08:10:57;;;;;;;7.97;7.67;;;;;;;17.99;64.45;93060.47;5068409;28;20260;-74
2023/08/08 08:13:23;;;;;;;8.10;7.80;;;;;;;18.15;64.77;93058.88;5055540;28;20245;-72
2023/08/08 08:15:48;;;;;;;8.70;8.30;;;;;;;18.06;61.99;93049.41;5060368;28;20243;-73
2023/08/08 08:18:16;;;;;;;8.57;8.23;;;;;;;17.75;61.62;93056.72;5064818;28;20221;-73
2023/08/08 08:20:42;;;;;;;9.37;8.97;;;;;;;18.01;63.06;93047.72;5067309;28;20190;-73
2023/08/08 08:23:07;;;;;;;8.70;8.30;;;;;;;18.09;63.41;93059.34;5066950;28;20224;-74
2023/08/08 08:25:33;;;;;;;9.20;8.80;;;;;;;18.33;62.92;93064.94;5067972;28;20186;-72
2023/08/08 08:27:58;;;;;;;8.13;7.83;;;;;;;17.93;62.62;93055.66;5052299;28;20228;-74
2023/08/08 08:30:26;;;;;;;9.27;8.70;;;;;;;18.06;62.56;93047.56;5036980;28;20265;-74
2023/08/08 08:32:51;;;;;;;9.57;9.07;;;;;;;18.19;62.93;93037.91;5056826;28;20219;-70
2023/08/08 08:35:17;;;;;;;9.03;8.63;;;;;;;18.30;62.15;93055.78;5065592;28;20194;-69
2023/08/08 08:37:43;;;;;;;9.63;9.13;;;;;;;18.39;63.05;93055.75;5066383;28;20295;-69
2023/08/08 08:40:09;;;;;;;8.80;8.30;;;;;;;18.11;61.76;93051.91;5066905;28;20197;-71
2023/08/08 08:42:35;;;;;;;9.13;8.53;;;;;;;18.34;63.13;93056.69;5062707;28;20232;-72
2023/08/08 08:45:02;;;;;;;9.07;8.67;;;;;;;18.77;60.85;93040.72;5065792;28;20534;-72
2023/08/08 08:47:30;;;;;;;7.90;7.57;;;;;;;19.09;59.88;93048.03;5057304;28;20238;-72
2023/08/08 08:49:56;;;;;;;9.07;8.37;;;;;;;18.36;61.65;93066.94;5063944;28;20193;-73
2023/08/08 08:52:22;;;;;;;8.73;8.43;;;;;;;18.32;61.25;93073.97;5062480;28;20222;-71
2023/08/08 08:54:48;;;;;;;9.73;9.00;;;;;;;18.86;60.12;93057.31;5067815;28;20193;-71
2023/08/08 08:57:14;;;;;;;8.77;8.37;;;;;;;18.57;58.60;93062.53;5063080;28;20231;-72
2023/08/08 08:59:39;;;;;;;9.13;8.70;;;;;;;18.93;59.52;93052.28;5065357;28;20195;-71
2023/08/08 09:02:06;;;;;;;9.67;9.07;;;;;;;19.39;60.19;93039.00;5062322;28;20236;-71
2023/08/08 09:04:34;;;;;;;8.53;8.10;;;;;;;18.57;58.79;93065.97;5070785;28;20197;-70
2023/08/08 09:07:00;;;;;;;9.13;8.63;;;;;;;18.09;62.98;93065.44;5065716;28;20222;-70
2023/08/08 09:09:26;;;;;;;8.77;8.37;;;;;;;18.39;62.23;93053.91;5071164;28;20183;-70
2023/08/08 09:11:55;;;;;;;9.00;8.60;;;;;;;18.27;63.40;93060.91;5070019;28;20231;-70
2023/08/08 09:14:23;;;;;;;9.67;9.17;;;;;;;18.17;62.49;93069.13;5070485;28;20208;-69
2023/08/08 09:16:51;;;;;;;9.80;9.07;;;;;;;18.00;62.79;93066.53;5069201;28;20227;-71
2023/08/08 09:19:19;;;;;;;9.60;9.10;;;;;;;18.46;60.44;93059.47;5067072;28;20187;-71
2023/08/08 09:21:45;;;;;;;9.53;9.13;;;;;;;19.00;59.24;93058.63;5069978;28;20230;-67
2023/08/08 09:24:11;;;;;;;9.17;8.77;;;;;;;19.40;58.77;93077.63;5068194;28;20240;-67
2023/08/08 09:26:37;;;;;;;8.80;8.40;;;;;;;18.19;60.45;93074.91;5067052;28;20180;-66
2023/08/08 09:29:03;;;;;;;8.77;8.37;;;;;;;17.85;60.96;93067.00;5070400;28;20183;-67
2023/08/08 09:31:29;;;;;;;8.57;8.17;;;;;;;18.11;56.98;93057.19;5066706;28;20267;-66
2023/08/08 09:33:58;;;;;;;8.83;8.43;;;;;;;18.28;59.61;93080.94;5070766;28;20245;-67
2023/08/08 09:36:23;;;;;;;9.03;8.53;;;;;;;18.92;60.97;93071.94;5061345;28;20227;-67
2023/08/08 09:38:49;;;;;;;9.47;8.97;;;;;;;18.74;61.66;93071.22;5065714;28;20196;-69
2023/08/08 09:41:15;;;;;;;9.83;9.37;;;;;;;18.20;62.39;93076.44;5069284;28;20192;-69
2023/08/08 09:43:43;;;;;;;9.23;8.83;;;;;;;18.11;61.85;93079.13;5069675;28;20254;-69
2023/08/08 09:46:09;;;;;;;11.63;10.53;;;;;;;18.50;61.97;93075.50;5067366;28;21227;-69
2023/08/08 09:48:38;;;;;;;10.10;9.60;;;;;;;18.08;63.35;93073.66;5071867;28;20261;-68
2023/08/08 09:51:04;;;;;;;17.40;15.73;;;;;;;18.75;62.60;93083.34;5069841;28;20269;-69
2023/08/08 09:53:30;;;;;;;10.40;9.43;;;;;;;18.84;59.00;93089.38;5063430;28;20237;-69
2023/08/08 09:55:56;;;;;;;9.40;8.80;;;;;;;18.70;60.08;93080.09;5063595;28;21094;-69
2023/08/08 09:58:23;;;;;;;8.83;8.43;;;;;;;18.75;60.44;93087.88;5063678;28;20222;-69
2023/08/08 10:00:49;;;;;;;10.03;9.53;;;;;;;18.74;61.82;93075.75;5063925;28;20184;-71
2023/08/08 10:03:16;;;;;;;9.03;8.57;;;;;;;18.56;60.65;93077.66;5058756;28;20230;-69
2023/08/08 10:05:42;;;;;;;8.80;8.40;;;;;;;18.79;59.21;93075.53;5061536;28;20186;-70
2023/08/08 10:08:08;;;;;;;8.93;8.53;;;;;;;18.81;59.92;93076.00;5064815;28;20258;-71
2023/08/08 10:10:34;;;;;;;8.93;8.43;;;;;;;18.89;59.98;93083.94;5063888;28;20218;-70
2023/08/08 10:12:59;;;;;;;8.60;8.20;;;;;;;19.15;57.22;93089.09;5072280;28;20263;-74
2023/08/08 10:15:27;;;;;;;8.57;8.17;;;;;;;18.94;59.21;93086.38;5067408;28;21041;-73
2023/08/08 10:17:56;;;;;;;9.10;8.60;;;;;;;18.83;59.92;93071.94;5067480;28;20229;-72
2023/08/08 10:20:21;;;;;;;9.77;9.37;;;;;;;18.79;60.22;93078.19;5064801;28;20196;-72
2023/08/08 10:22:47;;;;;;;9.63;9.23;;;;;;;19.01;61.40;93085.88;5065204;28;20236;-71
2023/08/08 10:25:43;;;;;;;9.40;8.97;;;;;;;19.15;60.01;93079.28;5062511;28;20310;-74
2023/08/08 10:28:13;;;;;;;9.20;8.70;;;;;;;19.06;59.75;93077.78;5059728;28;20237;-80
2023/08/08 10:30:42;;;;;;;9.63;9.07;;;;;;;18.81;59.01;93017.81;5068636;28;20722;-78
2023/08/08 10:33:19;;;;;;;9.20;8.80;;;;;;;18.83;58.76;93077.25;5068317;28;20230;-72
2023/08/08 10:35:58;;;;;;;9.50;9.10;;;;;;;18.93;59.04;93068.16;5070901;28;20173;-80
2023/08/08 10:38:25;;;;;;;8.53;8.20;;;;;;;18.83;58.76;93055.31;5037778;28;20228;-79
2023/08/08 10:40:58;;;;;;;9.33;8.93;;;;;;;19.24;57.34;93059.94;5045836;28;20226;-78
2023/08/08 10:43:28;;;;;;;9.07;8.67;;;;;;;19.30;58.19;93040.16;5062586;28;20256;-75
2023/08/08 10:45:58;;;;;;;9.43;9.03;;;;;;;19.38;58.55;93053.31;5063301;28;20212;-75
2023/08/08 10:48:24;;;;;;;9.30;8.90;;;;;;;19.54;58.22;93051.66;5048948;28;20223;-75
2023/08/08 10:50:50;;;;;;;14.70;9.00;;;;;;;19.75;56.54;93047.13;5061432;28;20219;-73
2023/08/08 10:53:15;;;;;;;9.10;8.70;;;;;;;19.57;57.33;93056.31;5064487;28;20222;-74
2023/08/08 10:55:42;;;;;;;8.97;8.50;;;;;;;19.60;56.65;93055.69;5067616;28;20188;-75
2023/08/08 10:58:10;;;;;;;9.00;8.57;;;;;;;19.22;55.70;93047.03;5050833;28;20237;-74
2023/08/08 11:00:40;;;;;;;8.73;8.33;;;;;;;19.34;55.52;93052.44;5046622;28;20207;-76
2023/08/08 11:03:06;;;;;;;9.37;8.97;;;;;;;19.45;56.67;93053.59;5050011;28;20232;-75
2023/08/08 11:05:34;;;;;;;8.70;8.30;;;;;;;19.73;57.46;93059.97;5068701;28;20247;-76
2023/08/08 11:08:01;;;;;;;9.03;8.63;;;;;;;19.82;56.02;93044.75;5051576;28;20280;-74
2023/08/08 11:10:30;;;;;;;8.00;7.70;;;;;;;19.67;55.36;93050.66;5045327;28;20211;-75
2023/08/08 11:13:02;;;;;;;8.70;8.30;;;;;;;19.49;54.64;93051.84;5057454;28;20211;-75
2023/08/08 11:15:29;;;;;;;8.53;8.13;;;;;;;19.37;55.62;93057.09;5067658;28;20187;-73
2023/08/08 11:17:59;;;;;;;8.73;8.43;;;;;;;19.38;54.39;93047.28;5068261;28;20223;-75
2023/08/08 11:20:25;;;;;;;8.27;7.87;;;;;;;19.42;55.23;93054.25;5064162;28;20670;-74
2023/08/08 11:22:57;;;;;;;8.30;8.00;;;;;;;19.55;53.59;93034.69;5058425;28;20251;-73
2023/08/08 11:25:26;;;;;;;9.57;8.87;;;;;;;19.76;55.63;93045.28;5048237;28;20215;-75